Time;durP1;ratioP1;P1;durP2;ratioP2;P2;SDS_P1;SDS_P2;PMS_P1;PMS_P2;Temp;Humidity;BMP_temperature;BMP_pressure;BME280_temperature;BME280_humidity;BME280_pressure;Samples;Min_cycle;Max_cycle;Signal;HPM_P1;HPM_P2
2021/07/21 00:01:46;;;;;;;9.47;7.30;;;;;;;;;;4933622;29;20442;-77
2021/07/21 00:04:13;;;;;;;11.20;7.13;;;;;;;;;;4933426;29;20460;-76
2021/07/21 00:06:40;;;;;;;9.87;6.63;;;;;;;;;;4934993;29;20496;-76
2021/07/21 00:09:09;;;;;;;7.40;5.83;;;;;;;;;;4926148;29;21015;-77
2021/07/21 00:14:19;;;;;;;8.20;6.70;;;;;;;;;;4930288;29;20463;-75
2021/07/21 00:16:51;;;;;;;9.43;6.30;;;;;;;;;;4932726;29;20477;-77
2021/07/21 00:22:00;;;;;;;10.17;5.77;;;;;;;;;;4917489;29;20506;-75
2021/07/21 00:24:28;;;;;;;7.40;6.57;;;;;;;;;;4930255;29;20916;-74
2021/07/21 00:26:55;;;;;;;8.90;6.40;;;;;;;;;;4929712;29;20470;-76
2021/07/21 00:29:22;;;;;;;7.10;5.60;;;;;;;;;;4933168;29;20466;-75
2021/07/21 00:31:49;;;;;;;10.40;6.20;;;;;;;;;;4927116;29;20838;-73
2021/07/21 00:34:17;;;;;;;8.47;6.20;;;;;;;;;;4934536;29;20915;-75
2021/07/21 00:36:44;;;;;;;9.07;6.70;;;;;;;;;;4925415;29;20473;-75
2021/07/21 00:39:11;;;;;;;7.73;6.03;;;;;;;;;;4928370;29;20478;-74
2021/07/21 00:41:40;;;;;;;9.63;7.13;;;;;;;;;;4932694;29;20446;-75
2021/07/21 00:44:07;;;;;;;12.37;6.70;;;;;;;;;;4930104;29;21125;-76
2021/07/21 00:46:35;;;;;;;8.47;5.83;;;;;;;;;;4915928;29;20439;-75
2021/07/21 00:49:02;;;;;;;6.83;5.40;;;;;;;;;;4914309;29;20825;-77
2021/07/21 00:51:30;;;;;;;10.17;7.57;;;;;;;;;;4932125;29;20462;-75
2021/07/21 00:53:57;;;;;;;7.17;5.97;;;;;;;;;;4946495;28;20454;-77
2021/07/21 00:56:24;;;;;;;9.33;6.80;;;;;;;;;;4932411;29;20491;-75
2021/07/21 00:58:53;;;;;;;8.93;6.53;;;;;;;;;;4917511;29;20471;-75
2021/07/21 01:01:20;;;;;;;11.70;6.53;;;;;;;;;;4921308;29;20459;-76
2021/07/21 01:03:47;;;;;;;11.57;6.50;;;;;;;;;;4932354;29;20446;-76
2021/07/21 01:06:14;;;;;;;8.43;6.63;;;;;;;;;;4931446;29;20940;-74
2021/07/21 01:08:41;;;;;;;9.30;5.43;;;;;;;;;;4917338;29;20491;-75
2021/07/21 01:11:13;;;;;;;8.93;5.87;;;;;;;;;;4915081;29;20455;-75
2021/07/21 01:13:42;;;;;;;8.40;6.33;;;;;;;;;;4927692;29;20839;-75
2021/07/21 01:16:12;;;;;;;10.80;6.37;;;;;;;;;;4948179;28;20481;-75
2021/07/21 01:18:42;;;;;;;12.90;6.40;;;;;;;;;;4938739;28;21342;-75
2021/07/21 01:21:16;;;;;;;8.10;6.17;;;;;;;;;;4933608;29;20458;-75
2021/07/21 01:23:51;;;;;;;9.53;6.40;;;;;;;;;;4924014;29;20456;-75
2021/07/21 01:26:22;;;;;;;7.03;6.00;;;;;;;;;;4924906;29;20469;-75
2021/07/21 01:28:51;;;;;;;8.07;5.90;;;;;;;;;;4911821;29;20505;-76
2021/07/21 01:31:22;;;;;;;9.63;5.83;;;;;;;;;;4931546;29;20433;-75
2021/07/21 01:33:49;;;;;;;6.80;5.73;;;;;;;;;;4933834;29;20612;-76
2021/07/21 01:36:21;;;;;;;8.13;5.87;;;;;;;;;;4917943;29;20483;-75
2021/07/21 01:38:51;;;;;;;8.17;6.73;;;;;;;;;;4929317;29;20519;-74
2021/07/21 01:41:21;;;;;;;7.50;5.53;;;;;;;;;;4929239;29;20858;-75
2021/07/21 01:43:50;;;;;;;9.13;6.27;;;;;;;;;;4914855;29;20458;-74
2021/07/21 01:46:21;;;;;;;11.20;5.83;;;;;;;;;;4931749;29;21060;-75
2021/07/21 01:48:49;;;;;;;7.67;5.73;;;;;;;;;;4898608;29;20457;-75
2021/07/21 01:51:16;;;;;;;8.20;6.20;;;;;;;;;;4914130;29;21001;-76
2021/07/21 01:53:43;;;;;;;8.33;6.87;;;;;;;;;;4925437;29;20832;-76
2021/07/21 01:56:11;;;;;;;7.60;6.50;;;;;;;;;;4914465;29;20474;-75
2021/07/21 01:58:38;;;;;;;10.90;5.87;;;;;;;;;;4927255;29;20475;-74
2021/07/21 02:01:06;;;;;;;8.37;6.47;;;;;;;;;;4933067;29;20667;-75
2021/07/21 02:03:35;;;;;;;9.53;6.20;;;;;;;;;;4931276;29;20458;-77
2021/07/21 02:06:06;;;;;;;8.30;6.40;;;;;;;;;;4918897;29;20459;-76
2021/07/21 02:08:34;;;;;;;7.30;6.13;;;;;;;;;;4931865;29;20454;-76
2021/07/21 02:11:02;;;;;;;7.57;6.00;;;;;;;;;;4913096;29;20436;-75
2021/07/21 02:13:30;;;;;;;9.60;5.50;;;;;;;;;;4932567;29;20453;-75
2021/07/21 02:15:58;;;;;;;6.80;5.33;;;;;;;;;;4931566;29;20466;-76
2021/07/21 02:18:26;;;;;;;9.20;5.87;;;;;;;;;;4932973;29;20441;-76
2021/07/21 02:20:55;;;;;;;6.60;5.00;;;;;;;;;;4931006;29;20478;-75
2021/07/21 02:23:26;;;;;;;7.90;6.20;;;;;;;;;;4927765;29;20469;-76
2021/07/21 02:25:53;;;;;;;8.83;5.67;;;;;;;;;;4914892;29;20959;-75
2021/07/21 02:28:20;;;;;;;8.27;6.27;;;;;;;;;;4930888;29;20490;-75
2021/07/21 02:30:49;;;;;;;7.60;5.40;;;;;;;;;;4916256;29;20463;-76
2021/07/21 02:33:21;;;;;;;7.93;5.90;;;;;;;;;;4897168;29;20433;-76
2021/07/21 02:35:48;;;;;;;6.57;5.10;;;;;;;;;;4930139;28;20454;-76
2021/07/21 02:38:16;;;;;;;6.40;5.50;;;;;;;;;;4928903;29;20486;-76
2021/07/21 02:40:44;;;;;;;7.50;5.50;;;;;;;;;;4932048;29;20481;-75
2021/07/21 02:43:11;;;;;;;6.87;5.47;;;;;;;;;;4930938;29;20458;-76
2021/07/21 02:45:40;;;;;;;11.47;6.37;;;;;;;;;;4916047;29;20820;-77
2021/07/21 02:48:08;;;;;;;6.83;5.33;;;;;;;;;;4938424;28;20493;-75
2021/07/21 02:50:35;;;;;;;10.67;6.03;;;;;;;;;;4932802;29;20469;-76
2021/07/21 02:53:03;;;;;;;6.40;5.63;;;;;;;;;;4931179;29;20450;-75
2021/07/21 02:55:34;;;;;;;8.97;6.50;;;;;;;;;;4925534;29;20953;-76
2021/07/21 02:58:03;;;;;;;9.23;6.13;;;;;;;;;;4913668;29;20495;-77
2021/07/21 03:00:31;;;;;;;8.13;5.83;;;;;;;;;;4915832;29;20467;-76
2021/07/21 03:02:59;;;;;;;10.83;6.87;;;;;;;;;;4922290;29;20458;-75
2021/07/21 03:05:27;;;;;;;8.30;6.70;;;;;;;;;;4954174;28;20472;-75
2021/07/21 03:07:57;;;;;;;7.40;5.83;;;;;;;;;;4904781;29;20496;-75
2021/07/21 03:10:25;;;;;;;11.50;6.57;;;;;;;;;;4899030;29;20453;-76
2021/07/21 03:12:57;;;;;;;9.80;5.87;;;;;;;;;;4923332;29;20470;-75
2021/07/21 03:15:26;;;;;;;10.93;5.50;;;;;;;;;;4931066;29;20808;-75
2021/07/21 03:17:54;;;;;;;19.43;6.47;;;;;;;;;;4910414;29;20969;-76
2021/07/21 03:20:23;;;;;;;7.83;6.20;;;;;;;;;;4927839;29;20922;-75
2021/07/21 03:22:51;;;;;;;8.37;5.63;;;;;;;;;;4930053;29;20513;-75
2021/07/21 03:25:19;;;;;;;7.23;6.03;;;;;;;;;;4944734;28;20471;-75
2021/07/21 03:27:46;;;;;;;7.70;5.73;;;;;;;;;;4934355;29;20495;-75
2021/07/21 03:30:15;;;;;;;11.30;6.70;;;;;;;;;;4935943;29;20479;-76
2021/07/21 03:32:44;;;;;;;9.27;6.00;;;;;;;;;;4931069;29;20474;-76
2021/07/21 03:35:12;;;;;;;9.83;6.77;;;;;;;;;;4914917;29;21696;-75
2021/07/21 03:37:40;;;;;;;12.63;6.13;;;;;;;;;;4933887;29;20485;-75
2021/07/21 03:40:08;;;;;;;9.27;6.30;;;;;;;;;;4912126;29;20492;-75
2021/07/21 03:42:36;;;;;;;9.03;5.90;;;;;;;;;;4935076;29;20804;-75
2021/07/21 03:45:05;;;;;;;10.00;6.50;;;;;;;;;;4933904;29;20444;-75
2021/07/21 03:47:34;;;;;;;10.83;7.20;;;;;;;;;;4925847;29;20500;-76
2021/07/21 03:50:02;;;;;;;7.83;6.23;;;;;;;;;;4933391;29;20614;-75
2021/07/21 03:52:30;;;;;;;9.10;6.40;;;;;;;;;;4923497;29;20469;-74
2021/07/21 03:54:57;;;;;;;9.23;7.23;;;;;;;;;;4930206;29;20973;-77
2021/07/21 03:57:26;;;;;;;9.33;6.63;;;;;;;;;;4935020;29;20874;-75
2021/07/21 03:59:53;;;;;;;8.13;6.37;;;;;;;;;;4930933;29;20465;-76
2021/07/21 04:02:21;;;;;;;11.27;7.00;;;;;;;;;;4929203;29;20462;-74
2021/07/21 04:04:50;;;;;;;8.80;6.40;;;;;;;;;;4931033;29;20464;-74
2021/07/21 04:07:18;;;;;;;10.80;7.03;;;;;;;;;;4933880;29;21117;-75
2021/07/21 04:09:46;;;;;;;8.57;6.17;;;;;;;;;;4928285;29;20454;-76
2021/07/21 04:12:16;;;;;;;8.27;6.20;;;;;;;;;;4935000;29;20445;-75
2021/07/21 04:14:43;;;;;;;9.10;7.13;;;;;;;;;;4933110;29;20968;-75
2021/07/21 04:17:11;;;;;;;10.07;6.73;;;;;;;;;;4923771;29;20485;-75
2021/07/21 04:19:39;;;;;;;10.57;6.40;;;;;;;;;;4932871;29;20856;-75
2021/07/21 04:22:08;;;;;;;8.27;6.27;;;;;;;;;;4920745;29;20980;-76
2021/07/21 04:24:35;;;;;;;10.33;6.40;;;;;;;;;;4915724;29;20462;-73
2021/07/21 04:27:03;;;;;;;8.40;6.47;;;;;;;;;;4901021;29;20470;-76
2021/07/21 04:29:32;;;;;;;10.80;6.60;;;;;;;;;;4915939;29;20837;-75
2021/07/21 04:32:00;;;;;;;8.23;6.30;;;;;;;;;;4934693;29;20494;-74
2021/07/21 04:34:27;;;;;;;13.13;6.30;;;;;;;;;;4926961;29;20835;-74
2021/07/21 04:36:56;;;;;;;10.00;6.80;;;;;;;;;;4910209;29;20479;-75
2021/07/21 04:39:25;;;;;;;8.57;6.87;;;;;;;;;;4917670;29;20509;-75
2021/07/21 04:41:52;;;;;;;10.20;7.20;;;;;;;;;;4915254;29;20514;-76
2021/07/21 04:44:20;;;;;;;13.20;6.70;;;;;;;;;;4926008;29;20548;-76
2021/07/21 04:46:47;;;;;;;7.07;6.17;;;;;;;;;;4950571;28;20805;-75
2021/07/21 04:49:16;;;;;;;7.50;6.53;;;;;;;;;;4914003;29;20884;-77
2021/07/21 04:51:44;;;;;;;7.90;6.37;;;;;;;;;;4933221;29;20446;-75
2021/07/21 04:54:11;;;;;;;8.30;6.20;;;;;;;;;;4933126;29;20462;-75
2021/07/21 04:56:40;;;;;;;8.33;6.13;;;;;;;;;;4921909;29;20844;-75
2021/07/21 04:59:07;;;;;;;8.60;6.57;;;;;;;;;;4934266;29;20473;-76
2021/07/21 05:01:34;;;;;;;7.90;7.07;;;;;;;;;;4931020;29;20473;-75
2021/07/21 05:04:01;;;;;;;11.30;6.80;;;;;;;;;;4915926;29;20455;-76
2021/07/21 05:06:29;;;;;;;8.57;7.10;;;;;;;;;;4936042;29;20915;-75
2021/07/21 05:08:56;;;;;;;9.30;6.70;;;;;;;;;;4934380;29;20965;-76
2021/07/21 05:11:23;;;;;;;7.43;6.43;;;;;;;;;;4930333;29;20467;-75
2021/07/21 05:13:51;;;;;;;8.47;6.60;;;;;;;;;;4932680;29;20809;-75
2021/07/21 05:16:19;;;;;;;8.37;6.50;;;;;;;;;;4925470;29;20471;-76
2021/07/21 05:18:47;;;;;;;6.77;6.07;;;;;;;;;;4933920;29;20495;-75
2021/07/21 05:21:14;;;;;;;6.77;5.47;;;;;;;;;;4932843;29;20511;-76
2021/07/21 05:23:41;;;;;;;9.80;6.47;;;;;;;;;;4919709;29;20470;-75
2021/07/21 05:26:08;;;;;;;9.13;5.60;;;;;;;;;;4920073;29;20467;-76
2021/07/21 05:28:37;;;;;;;6.87;5.63;;;;;;;;;;4935659;29;20462;-76
2021/07/21 05:31:06;;;;;;;7.10;5.20;;;;;;;;;;4933166;29;20953;-76
2021/07/21 05:33:33;;;;;;;7.60;5.70;;;;;;;;;;4925392;29;20458;-76
2021/07/21 05:36:01;;;;;;;8.83;5.40;;;;;;;;;;4932305;29;20453;-76
2021/07/21 05:38:29;;;;;;;7.63;5.50;;;;;;;;;;4929097;29;20502;-76
2021/07/21 05:40:56;;;;;;;7.80;5.43;;;;;;;;;;4933842;29;20590;-76
2021/07/21 05:43:24;;;;;;;5.33;4.83;;;;;;;;;;4928422;29;20458;-75
2021/07/21 05:45:52;;;;;;;5.73;4.80;;;;;;;;;;4923101;29;20598;-76
2021/07/21 05:48:20;;;;;;;12.70;5.83;;;;;;;;;;4931309;29;20458;-75
2021/07/21 05:50:47;;;;;;;7.13;5.50;;;;;;;;;;4930719;29;20957;-76
2021/07/21 05:53:14;;;;;;;5.20;4.70;;;;;;;;;;4933096;29;20450;-80
2021/07/21 05:55:42;;;;;;;6.40;5.00;;;;;;;;;;4933144;29;20442;-78
2021/07/21 05:58:10;;;;;;;6.87;5.57;;;;;;;;;;4931726;29;20482;-79
2021/07/21 06:00:37;;;;;;;7.00;5.57;;;;;;;;;;4916835;29;20545;-77
2021/07/21 06:03:04;;;;;;;7.37;5.90;;;;;;;;;;4925297;29;20788;-78
2021/07/21 06:05:33;;;;;;;6.90;5.20;;;;;;;;;;4931497;29;20470;-77
2021/07/21 06:08:00;;;;;;;10.47;5.30;;;;;;;;;;4932124;29;20808;-78
2021/07/21 06:10:27;;;;;;;7.43;4.80;;;;;;;;;;4930102;29;20489;-77
2021/07/21 06:12:54;;;;;;;7.53;4.53;;;;;;;;;;4933673;28;20454;-77
2021/07/21 06:15:26;;;;;;;6.10;5.00;;;;;;;;;;4935915;28;20459;-78
2021/07/21 06:17:53;;;;;;;5.30;4.70;;;;;;;;;;4931065;29;20478;-78
2021/07/21 06:20:20;;;;;;;9.73;5.60;;;;;;;;;;4930131;29;20470;-77
2021/07/21 06:22:49;;;;;;;6.67;5.60;;;;;;;;;;4915754;29;20471;-80
2021/07/21 06:25:17;;;;;;;7.63;5.17;;;;;;;;;;4930661;29;20477;-79
2021/07/21 06:27:44;;;;;;;7.73;5.20;;;;;;;;;;4933476;29;20528;-78
2021/07/21 06:30:12;;;;;;;8.23;5.10;;;;;;;;;;4931712;29;20452;-78
2021/07/21 06:32:39;;;;;;;6.90;4.90;;;;;;;;;;4924386;29;20454;-78
2021/07/21 06:35:07;;;;;;;6.63;5.00;;;;;;;;;;4930325;29;20477;-77
2021/07/21 06:37:34;;;;;;;5.60;4.80;;;;;;;;;;4910908;29;20494;-79
2021/07/21 06:40:04;;;;;;;9.30;4.77;;;;;;;;;;4928328;29;20497;-78
2021/07/21 06:42:31;;;;;;;4.83;4.33;;;;;;;;;;4928126;29;20562;-78
2021/07/21 06:44:58;;;;;;;6.00;4.60;;;;;;;;;;4924649;29;20482;-78
2021/07/21 06:47:25;;;;;;;4.77;3.73;;;;;;;;;;4930446;29;20469;-80
2021/07/21 06:49:53;;;;;;;6.67;4.93;;;;;;;;;;4927945;29;20477;-79
2021/07/21 06:52:22;;;;;;;6.90;4.97;;;;;;;;;;4885959;29;20470;-74
2021/07/21 06:54:50;;;;;;;8.30;4.67;;;;;;;;;;4912685;29;20455;-77
2021/07/21 06:57:18;;;;;;;7.10;4.80;;;;;;;;;;4918950;29;20464;-73
2021/07/21 06:59:45;;;;;;;5.40;3.87;;;;;;;;;;4933151;29;20439;-73
2021/07/21 07:02:12;;;;;;;6.80;5.30;;;;;;;;;;4927508;29;20835;-73
2021/07/21 07:04:40;;;;;;;5.73;4.00;;;;;;;;;;4935783;29;20450;-76
2021/07/21 07:07:07;;;;;;;4.27;3.87;;;;;;;;;;4923233;29;20664;-74
2021/07/21 07:09:34;;;;;;;4.57;4.00;;;;;;;;;;4919277;29;20570;-74
2021/07/21 07:12:01;;;;;;;4.20;3.80;;;;;;;;;;4933755;29;20466;-76
2021/07/21 07:14:30;;;;;;;4.97;3.90;;;;;;;;;;4934168;29;20466;-74
2021/07/21 07:16:57;;;;;;;6.77;4.07;;;;;;;;;;4921280;29;20451;-75
2021/07/21 07:19:24;;;;;;;4.73;3.70;;;;;;;;;;4930056;29;20498;-73
2021/07/21 07:21:51;;;;;;;5.03;3.67;;;;;;;;;;4930402;29;20439;-72
2021/07/21 07:24:19;;;;;;;4.90;3.83;;;;;;;;;;4931936;29;20467;-73
2021/07/21 07:26:46;;;;;;;5.30;4.00;;;;;;;;;;4900200;29;20524;-73
2021/07/21 07:29:13;;;;;;;7.23;4.50;;;;;;;;;;4916584;29;20467;-73
2021/07/21 07:31:42;;;;;;;5.40;3.63;;;;;;;;;;4921645;29;20485;-74
2021/07/21 07:34:09;;;;;;;4.07;3.67;;;;;;;;;;4934378;29;21005;-74
2021/07/21 07:36:37;;;;;;;4.07;3.20;;;;;;;;;;4935494;29;20451;-73
2021/07/21 07:39:04;;;;;;;6.07;3.63;;;;;;;;;;4933835;29;20490;-73
2021/07/21 07:41:32;;;;;;;3.77;3.37;;;;;;;;;;4936277;29;20653;-75
2021/07/21 07:43:59;;;;;;;4.80;3.90;;;;;;;;;;4931279;29;20478;-75
2021/07/21 07:46:27;;;;;;;4.20;3.80;;;;;;;;;;4931058;29;20443;-74
2021/07/21 07:48:57;;;;;;;4.30;3.90;;;;;;;;;;4933168;29;20561;-74
2021/07/21 07:51:24;;;;;;;4.27;3.87;;;;;;;;;;4923381;29;20462;-74
2021/07/21 07:53:52;;;;;;;3.63;3.10;;;;;;;;;;4898874;29;20710;-74
2021/07/21 07:56:19;;;;;;;4.37;3.20;;;;;;;;;;4924648;29;20468;-72
2021/07/21 07:58:46;;;;;;;3.40;3.10;;;;;;;;;;4932502;29;20492;-73
2021/07/21 08:01:14;;;;;;;3.50;3.17;;;;;;;;;;4924641;29;20468;-74
2021/07/21 08:03:41;;;;;;;3.30;2.60;;;;;;;;;;4915850;29;20451;-75
2021/07/21 08:06:09;;;;;;;4.97;3.40;;;;;;;;;;4916944;29;20462;-74
2021/07/21 08:08:36;;;;;;;5.87;3.87;;;;;;;;;;4918326;29;20479;-74
2021/07/21 08:11:04;;;;;;;4.13;3.00;;;;;;;;;;4928652;29;20808;-74
2021/07/21 08:13:31;;;;;;;3.30;2.80;;;;;;;;;;4930374;29;20465;-74
2021/07/21 08:15:59;;;;;;;3.20;2.90;;;;;;;;;;4902848;29;20491;-74
2021/07/21 08:18:26;;;;;;;4.33;3.47;;;;;;;;;;4928213;29;20494;-74
2021/07/21 08:20:53;;;;;;;2.90;2.50;;;;;;;;;;4931829;29;20785;-73
2021/07/21 08:23:22;;;;;;;3.80;2.83;;;;;;;;;;4931215;29;20461;-74
2021/07/21 08:25:49;;;;;;;3.23;2.87;;;;;;;;;;4933418;29;20442;-73
2021/07/21 08:28:17;;;;;;;3.60;3.23;;;;;;;;;;4930784;29;20840;-74
2021/07/21 08:30:45;;;;;;;5.20;3.47;;;;;;;;;;4916333;29;20494;-74
2021/07/21 08:33:12;;;;;;;2.70;2.50;;;;;;;;;;4932244;29;20466;-73
2021/07/21 08:35:40;;;;;;;5.27;3.10;;;;;;;;;;4932984;29;20461;-73
2021/07/21 08:38:07;;;;;;;3.80;2.63;;;;;;;;;;4917962;29;20493;-74
2021/07/21 08:40:36;;;;;;;4.10;3.17;;;;;;;;;;4928737;29;20582;-74
2021/07/21 08:43:06;;;;;;;3.40;3.10;;;;;;;;;;4932354;29;20932;-73
2021/07/21 08:45:33;;;;;;;6.30;3.13;;;;;;;;;;4924740;29;20471;-75
2021/07/21 08:48:01;;;;;;;4.03;2.93;;;;;;;;;;4914317;29;20473;-74
2021/07/21 08:50:28;;;;;;;6.57;3.80;;;;;;;;;;4916285;29;20820;-73
2021/07/21 08:52:56;;;;;;;3.70;3.40;;;;;;;;;;4926015;29;20465;-74
2021/07/21 08:55:25;;;;;;;4.20;3.57;;;;;;;;;;4932850;29;20834;-74
2021/07/21 08:57:53;;;;;;;4.27;3.73;;;;;;;;;;4928239;29;20466;-75
2021/07/21 09:00:21;;;;;;;4.27;3.80;;;;;;;;;;4933579;29;20450;-74
2021/07/21 09:02:48;;;;;;;5.50;3.80;;;;;;;;;;4930500;29;20947;-74
2021/07/21 09:05:16;;;;;;;4.20;3.80;;;;;;;;;;4908635;29;20450;-74
2021/07/21 09:07:43;;;;;;;4.10;3.57;;;;;;;;;;4927945;29;21008;-73
2021/07/21 09:10:12;;;;;;;4.23;3.83;;;;;;;;;;4934399;29;20458;-73
2021/07/21 09:12:40;;;;;;;5.00;3.90;;;;;;;;;;4921660;29;20454;-74
2021/07/21 09:15:10;;;;;;;4.83;3.60;;;;;;;;;;4922901;29;20501;-75
2021/07/21 09:17:37;;;;;;;4.57;3.77;;;;;;;;;;4926809;29;20463;-74
2021/07/21 09:20:05;;;;;;;3.93;3.60;;;;;;;;;;4927207;29;20494;-77
2021/07/21 09:22:37;;;;;;;5.90;4.80;;;;;;;;;;4924696;29;20565;-73
2021/07/21 09:25:14;;;;;;;4.00;3.60;;;;;;;;;;4903935;29;20510;-71
2021/07/21 09:27:42;;;;;;;5.07;3.70;;;;;;;;;;4931809;29;20556;-74
2021/07/21 09:30:13;;;;;;;5.60;3.97;;;;;;;;;;4928962;29;20848;-74
2021/07/21 09:32:55;;;;;;;4.63;3.50;;;;;;;;;;4935000;29;20454;-74
2021/07/21 09:35:23;;;;;;;5.40;4.23;;;;;;;;;;4912754;29;20489;-74
2021/07/21 09:37:50;;;;;;;6.50;4.40;;;;;;;;;;4935668;29;20478;-76
2021/07/21 09:40:18;;;;;;;5.47;4.50;;;;;;;;;;4914782;29;20723;-74
2021/07/21 09:42:45;;;;;;;4.80;4.30;;;;;;;;;;4929742;29;20471;-75
2021/07/21 09:45:14;;;;;;;6.57;4.40;;;;;;;;;;4923072;29;20462;-74
2021/07/21 09:47:49;;;;;;;6.67;4.97;;;;;;;;;;4923976;29;20578;-74
2021/07/21 09:50:17;;;;;;;4.70;4.20;;;;;;;;;;4917603;29;20453;-74
2021/07/21 09:52:47;;;;;;;5.80;4.50;;;;;;;;;;4948563;29;20474;-74
2021/07/21 09:55:15;;;;;;;4.47;3.83;;;;;;;;;;4932908;29;20455;-74
2021/07/21 09:57:42;;;;;;;5.00;4.00;;;;;;;;;;4930757;29;20545;-74
2021/07/21 10:00:24;;;;;;;4.23;3.80;;;;;;;;;;4922990;29;21015;-74
2021/07/21 10:02:53;;;;;;;5.20;4.10;;;;;;;;;;4918294;29;20756;-74
2021/07/21 10:05:20;;;;;;;4.83;4.03;;;;;;;;;;4913841;29;20489;-74
2021/07/21 10:07:50;;;;;;;8.37;4.70;;;;;;;;;;4928720;29;21031;-74
2021/07/21 10:10:18;;;;;;;5.13;4.57;;;;;;;;;;4931825;29;20956;-75
2021/07/21 10:12:58;;;;;;;4.57;3.90;;;;;;;;;;4929992;29;20451;-75
2021/07/21 10:15:25;;;;;;;4.93;4.43;;;;;;;;;;4901924;29;20473;-74
2021/07/21 10:18:07;;;;;;;4.83;4.10;;;;;;;;;;4918275;29;20841;-74
2021/07/21 10:20:36;;;;;;;5.87;4.87;;;;;;;;;;4917910;29;20504;-74
2021/07/21 10:23:03;;;;;;;4.80;4.30;;;;;;;;;;4923113;29;20481;-74
2021/07/21 10:25:31;;;;;;;5.80;4.43;;;;;;;;;;4922706;29;20851;-74
2021/07/21 10:27:58;;;;;;;5.80;4.63;;;;;;;;;;4927444;29;20498;-74
2021/07/21 10:30:26;;;;;;;6.67;4.97;;;;;;;;;;4925075;29;20475;-74
2021/07/21 10:32:54;;;;;;;6.17;4.80;;;;;;;;;;4910985;29;20826;-75
2021/07/21 10:35:22;;;;;;;5.60;4.17;;;;;;;;;;4935184;29;20449;-74
2021/07/21 10:37:52;;;;;;;6.33;4.23;;;;;;;;;;4932246;29;20486;-74
2021/07/21 10:40:19;;;;;;;6.10;4.20;;;;;;;;;;4932104;29;20549;-75
2021/07/21 10:42:47;;;;;;;8.23;5.10;;;;;;;;;;4934808;29;20970;-75
2021/07/21 10:45:15;;;;;;;6.27;5.03;;;;;;;;;;4934466;29;20458;-74
2021/07/21 10:47:44;;;;;;;5.43;4.27;;;;;;;;;;4935817;29;20984;-73
2021/07/21 10:50:25;;;;;;;6.97;5.07;;;;;;;;;;4920072;29;20462;-74
2021/07/21 10:53:14;;;;;;;5.47;4.83;;;;;;;;;;4934752;29;20493;-75
2021/07/21 10:55:45;;;;;;;8.00;5.03;;;;;;;;;;4919371;29;20883;-75
2021/07/21 11:00:54;;;;;;;5.47;4.73;;;;;;;;;;4932314;29;20504;-74
2021/07/21 11:03:22;;;;;;;5.70;4.90;;;;;;;;;;4924190;29;20458;-75
2021/07/21 11:05:58;;;;;;;6.50;5.57;;;;;;;;;;4928538;29;20466;-75
2021/07/21 11:08:27;;;;;;;5.20;4.70;;;;;;;;;;4932740;29;20983;-73
2021/07/21 11:10:55;;;;;;;5.90;5.30;;;;;;;;;;4935289;29;20506;-75
2021/07/21 11:13:37;;;;;;;6.23;4.97;;;;;;;;;;4928934;29;20917;-74
2021/07/21 11:16:05;;;;;;;5.10;4.60;;;;;;;;;;4902493;29;20450;-75
2021/07/21 11:18:47;;;;;;;5.60;4.93;;;;;;;;;;4922991;29;20894;-75
2021/07/21 11:21:16;;;;;;;7.20;5.90;;;;;;;;;;4918932;29;20468;-73
2021/07/21 11:23:45;;;;;;;5.70;5.10;;;;;;;;;;4937511;28;20454;-73
2021/07/21 11:26:27;;;;;;;5.43;4.80;;;;;;;;;;4916342;29;20464;-74
2021/07/21 11:28:55;;;;;;;6.40;5.23;;;;;;;;;;4918743;29;20483;-74
2021/07/21 11:31:37;;;;;;;6.37;5.60;;;;;;;;;;4912470;29;20469;-74
2021/07/21 11:34:11;;;;;;;5.77;5.17;;;;;;;;;;4910590;29;20765;-75
2021/07/21 11:36:56;;;;;;;6.40;5.50;;;;;;;;;;4925726;29;20509;-75
2021/07/21 11:39:40;;;;;;;8.77;5.87;;;;;;;;;;4906899;29;20566;-74
2021/07/21 11:42:09;;;;;;;5.90;5.20;;;;;;;;;;4920453;29;20458;-74
2021/07/21 11:44:38;;;;;;;7.13;5.80;;;;;;;;;;4916119;29;20461;-75
2021/07/21 11:47:06;;;;;;;8.33;5.70;;;;;;;;;;4918496;29;20455;-75
2021/07/21 11:49:34;;;;;;;6.80;5.80;;;;;;;;;;4915037;29;20478;-74
2021/07/21 11:52:03;;;;;;;6.70;6.00;;;;;;;;;;4927363;29;20458;-75
2021/07/21 11:54:31;;;;;;;5.93;5.37;;;;;;;;;;4924779;29;20454;-75
2021/07/21 11:56:58;;;;;;;6.33;5.73;;;;;;;;;;4918587;29;21007;-75
2021/07/21 11:59:28;;;;;;;6.10;5.50;;;;;;;;;;4931077;29;20493;-76
2021/07/21 12:02:04;;;;;;;6.70;5.50;;;;;;;;;;4931703;29;20470;-77
2021/07/21 12:04:31;;;;;;;6.97;6.27;;;;;;;;;;4911086;29;20462;-79
2021/07/21 12:06:58;;;;;;;6.20;5.40;;;;;;;;;;4929740;29;20449;-78
2021/07/21 12:09:28;;;;;;;6.93;6.10;;;;;;;;;;4928451;29;20555;-77
2021/07/21 12:11:55;;;;;;;11.37;5.83;;;;;;;;;;4928486;29;21194;-76
2021/07/21 12:14:23;;;;;;;7.70;5.80;;;;;;;;;;4918877;29;20463;-75
2021/07/21 12:16:53;;;;;;;9.87;6.40;;;;;;;;;;4919326;29;20462;-76
2021/07/21 12:19:26;;;;;;;7.60;5.40;;;;;;;;;;4926165;29;21141;-75
2021/07/21 12:22:00;;;;;;;8.10;6.53;;;;;;;;;;4923044;29;20467;-76
2021/07/21 12:24:32;;;;;;;8.53;6.87;;;;;;;;;;4919703;29;20463;-77
2021/07/21 12:26:59;;;;;;;6.73;5.77;;;;;;;;;;4915131;29;20479;-77
2021/07/21 12:29:27;;;;;;;7.70;6.10;;;;;;;;;;4924071;29;20831;-77
2021/07/21 12:32:03;;;;;;;7.27;5.90;;;;;;;;;;4927871;29;20949;-76
2021/07/21 12:34:31;;;;;;;8.50;5.87;;;;;;;;;;4928409;29;20606;-76
2021/07/21 12:36:58;;;;;;;9.30;7.00;;;;;;;;;;4930707;29;20466;-77
2021/07/21 12:39:26;;;;;;;10.00;7.23;;;;;;;;;;4931761;29;20479;-77
2021/07/21 12:41:53;;;;;;;12.17;6.30;;;;;;;;;;4900601;29;20458;-76
2021/07/21 12:44:26;;;;;;;10.03;7.47;;;;;;;;;;4921470;29;20467;-76
2021/07/21 12:47:09;;;;;;;10.13;7.57;;;;;;;;;;4917491;29;20449;-76
2021/07/21 12:49:38;;;;;;;9.37;7.17;;;;;;;;;;4927881;29;20481;-77
2021/07/21 12:52:05;;;;;;;8.13;6.60;;;;;;;;;;4927707;29;20988;-75
2021/07/21 12:54:33;;;;;;;9.67;7.50;;;;;;;;;;4922694;29;20451;-77
2021/07/21 12:57:00;;;;;;;10.80;8.47;;;;;;;;;;4917233;29;20455;-75
2021/07/21 12:59:35;;;;;;;9.73;7.10;;;;;;;;;;4924970;29;20494;-77
2021/07/21 13:02:11;;;;;;;8.50;7.10;;;;;;;;;;4928600;29;20462;-75
2021/07/21 13:04:39;;;;;;;9.17;7.70;;;;;;;;;;4929889;29;20836;-76
2021/07/21 13:07:07;;;;;;;9.13;7.03;;;;;;;;;;4907218;29;20455;-75
2021/07/21 13:09:34;;;;;;;8.50;6.93;;;;;;;;;;4906893;29;20525;-77
2021/07/21 13:12:02;;;;;;;9.90;7.43;;;;;;;;;;4910324;29;20752;-77
2021/07/21 13:14:29;;;;;;;8.40;7.10;;;;;;;;;;4919532;29;20546;-75
2021/07/21 13:17:09;;;;;;;7.87;7.07;;;;;;;;;;4925916;29;20469;-78
2021/07/21 13:19:36;;;;;;;7.60;6.70;;;;;;;;;;4935577;29;20541;-78
2021/07/21 13:22:05;;;;;;;7.83;6.93;;;;;;;;;;4929302;29;20462;-76
2021/07/21 13:24:40;;;;;;;9.67;7.30;;;;;;;;;;4909987;29;20442;-76
2021/07/21 13:27:07;;;;;;;8.13;7.27;;;;;;;;;;4913156;29;20468;-77
2021/07/21 13:29:35;;;;;;;7.87;6.80;;;;;;;;;;4915692;29;20542;-74
2021/07/21 13:32:03;;;;;;;8.80;7.60;;;;;;;;;;4917761;29;20820;-76
2021/07/21 13:34:31;;;;;;;9.67;7.30;;;;;;;;;;4908584;29;20466;-76
2021/07/21 13:36:59;;;;;;;10.47;7.93;;;;;;;;;;4915368;29;20557;-76
2021/07/21 13:39:28;;;;;;;9.37;7.80;;;;;;;;;;4912440;29;20494;-75
2021/07/21 13:41:56;;;;;;;9.60;7.40;;;;;;;;;;4904263;29;20450;-75
2021/07/21 13:44:25;;;;;;;11.00;8.27;;;;;;;;;;4906785;29;20487;-75
2021/07/21 13:46:53;;;;;;;8.40;7.03;;;;;;;;;;4926594;29;20797;-76
2021/07/21 13:49:26;;;;;;;8.60;7.20;;;;;;;;;;4930313;29;20849;-76
2021/07/21 13:51:56;;;;;;;10.00;8.00;;;;;;;;;;4915690;29;20454;-75
2021/07/21 13:54:25;;;;;;;12.30;8.33;;;;;;;;;;4926795;29;20463;-77
2021/07/21 13:56:54;;;;;;;10.00;8.10;;;;;;;;;;4931324;29;20532;-77
2021/07/21 13:59:22;;;;;;;10.10;7.30;;;;;;;;;;4902967;29;20992;-78
2021/07/21 14:01:49;;;;;;;8.83;7.50;;;;;;;;;;4925139;29;20852;-78
2021/07/21 14:04:16;;;;;;;10.17;7.37;;;;;;;;;;4914110;29;20439;-76
2021/07/21 14:06:44;;;;;;;9.07;7.47;;;;;;;;;;4922671;29;20467;-76
2021/07/21 14:09:12;;;;;;;9.60;8.13;;;;;;;;;;4916467;29;20510;-77
2021/07/21 14:11:39;;;;;;;9.07;7.97;;;;;;;;;;4913631;29;20474;-76
2021/07/21 14:14:08;;;;;;;9.43;8.10;;;;;;;;;;4922360;29;20462;-76
2021/07/21 14:16:35;;;;;;;8.90;7.50;;;;;;;;;;4924751;29;20449;-75
2021/07/21 14:19:02;;;;;;;10.63;8.53;;;;;;;;;;4909029;29;20835;-74
2021/07/21 14:21:30;;;;;;;9.10;8.20;;;;;;;;;;4923639;29;20502;-74
2021/07/21 14:23:58;;;;;;;9.37;7.70;;;;;;;;;;4931606;29;20456;-74
2021/07/21 14:26:26;;;;;;;10.27;8.73;;;;;;;;;;4913898;29;20529;-74
2021/07/21 14:28:53;;;;;;;9.57;7.80;;;;;;;;;;4912156;29;21524;-74
2021/07/21 14:31:22;;;;;;;11.90;8.37;;;;;;;;;;4928190;29;20473;-74
2021/07/21 14:33:50;;;;;;;11.53;8.23;;;;;;;;;;4930171;29;20473;-73
2021/07/21 14:36:17;;;;;;;9.33;8.33;;;;;;;;;;4927866;29;20545;-74
2021/07/21 14:38:44;;;;;;;11.10;8.57;;;;;;;;;;4908616;29;20485;-74
2021/07/21 14:41:12;;;;;;;11.07;8.27;;;;;;;;;;4924804;29;20501;-73
2021/07/21 14:43:39;;;;;;;11.60;7.93;;;;;;;;;;4927238;29;20458;-73
2021/07/21 14:46:07;;;;;;;10.50;7.90;;;;;;;;;;4930128;29;20451;-74
2021/07/21 14:48:35;;;;;;;8.90;7.30;;;;;;;;;;4923289;29;20541;-73
2021/07/21 14:51:03;;;;;;;13.10;8.63;;;;;;;;;;4931128;29;21279;-74
2021/07/21 14:53:30;;;;;;;10.33;8.13;;;;;;;;;;4930860;29;20810;-76
2021/07/21 14:55:57;;;;;;;8.83;7.17;;;;;;;;;;4914789;29;20459;-75
2021/07/21 14:58:24;;;;;;;10.57;8.03;;;;;;;;;;4928509;29;20490;-74